Time;durP1;ratioP1;P1;durP2;ratioP2;P2;SDS_P1;SDS_P2;PMS_P1;PMS_P2;Temp;Humidity;BMP_temperature;BMP_pressure;BME280_temperature;BME280_humidity;BME280_pressure;Samples;Min_cycle;Max_cycle;Signal;HPM_P1;HPM_P2
2023/05/13 04:01:07;;;;;;;4.70;4.32;;;10.50;99.90;;;;;;5641327;23;20235;-68
2023/05/13 04:03:34;;;;;;;3.72;3.65;;;10.50;99.90;;;;;;4971670;28;20227;-68
2023/05/13 04:06:00;;;;;;;8.30;3.45;;;10.50;99.90;;;;;;4971728;28;20260;-67
2023/05/13 04:08:27;;;;;;;4.00;3.08;;;10.50;99.90;;;;;;4962944;28;20205;-68
2023/05/13 04:10:55;;;;;;;2.63;2.55;;;10.50;99.90;;;;;;4951576;28;20240;-67
2023/05/13 04:13:22;;;;;;;3.20;3.00;;;10.50;99.90;;;;;;4953605;28;20630;-70
2023/05/13 04:15:48;;;;;;;3.22;2.40;;;10.60;99.90;;;;;;4954707;28;20213;-69
2023/05/13 04:18:16;;;;;;;3.65;2.50;;;10.60;99.90;;;;;;4954356;28;20221;-69
2023/05/13 04:20:43;;;;;;;3.42;3.22;;;10.60;99.90;;;;;;4954632;28;20640;-69
2023/05/13 04:23:10;;;;;;;3.50;3.30;;;10.60;99.90;;;;;;4954205;28;20236;-70
2023/05/13 04:25:36;;;;;;;3.33;3.00;;;10.70;99.90;;;;;;4954117;28;20617;-70
2023/05/13 04:28:03;;;;;;;3.17;2.97;;;10.70;99.90;;;;;;4954135;29;20325;-69
2023/05/13 04:30:30;;;;;;;3.75;3.53;;;10.90;99.90;;;;;;4954565;28;20234;-70
2023/05/13 04:32:57;;;;;;;4.60;4.27;;;11.40;99.90;;;;;;4954319;29;20212;-71
2023/05/13 04:35:25;;;;;;;7.50;5.23;;;12.00;99.90;;;;;;4955349;29;20464;-70
2023/05/13 04:37:52;;;;;;;4.13;3.80;;;12.50;99.90;;;;;;4955069;29;20615;-70
2023/05/13 04:40:19;;;;;;;2.70;2.60;;;13.00;99.90;;;;;;4949689;28;20473;-70
2023/05/13 04:42:53;;;;;;;3.30;3.20;;;13.40;99.90;;;;;;4953874;28;20993;-69
2023/05/13 04:45:19;;;;;;;3.30;3.20;;;13.90;99.90;;;;;;4952995;28;20480;-70
2023/05/13 04:47:46;;;;;;;2.67;2.57;;;14.40;99.90;;;;;;4948728;28;20469;-69
2023/05/13 04:50:13;;;;;;;2.73;2.63;;;14.90;99.90;;;;;;4944790;28;20958;-70
2023/05/13 04:52:41;;;;;;;3.67;3.40;;;15.40;99.90;;;;;;4953847;28;20934;-70
2023/05/13 04:55:09;;;;;;;3.50;3.33;;;15.70;99.90;;;;;;4945265;28;20480;-68
2023/05/13 04:57:36;;;;;;;2.73;2.63;;;16.00;99.90;;;;;;4943899;28;20734;-69
2023/05/13 05:00:03;;;;;;;3.00;2.90;;;16.20;99.90;;;;;;4953689;28;20472;-69
2023/05/13 05:02:30;;;;;;;3.37;3.17;;;16.40;99.90;;;;;;4945185;28;20504;-71
2023/05/13 05:04:56;;;;;;;3.23;3.13;;;16.50;99.90;;;;;;4951669;28;20475;-69
2023/05/13 05:07:23;;;;;;;2.27;2.23;;;16.30;99.90;;;;;;4954336;28;20499;-69
2023/05/13 05:09:51;;;;;;;3.07;2.87;;;16.30;99.90;;;;;;4954506;28;20922;-70
2023/05/13 05:12:18;;;;;;;2.90;2.73;;;16.10;99.90;;;;;;4953578;28;20485;-70
2023/05/13 05:14:45;;;;;;;3.10;2.90;;;15.60;99.90;;;;;;4954159;28;20824;-71
2023/05/13 05:17:12;;;;;;;3.37;3.13;;;15.10;99.90;;;;;;4953771;29;20499;-70
2023/05/13 05:19:38;;;;;;;3.93;3.57;;;14.60;99.90;;;;;;4950157;28;20479;-69
2023/05/13 05:22:05;;;;;;;3.60;2.80;;;14.30;99.90;;;;;;4953715;28;20558;-68
2023/05/13 05:24:33;;;;;;;2.90;2.80;;;14.10;99.90;;;;;;4948621;28;20477;-69
2023/05/13 05:27:01;;;;;;;3.50;3.40;;;14.00;99.90;;;;;;4947640;29;20833;-69
2023/05/13 05:29:28;;;;;;;3.27;2.97;;;13.70;99.90;;;;;;4943415;28;20552;-71
2023/05/13 05:31:54;;;;;;;4.10;3.90;;;13.40;99.90;;;;;;4951669;28;20495;-69
2023/05/13 05:34:21;;;;;;;3.23;2.93;;;13.20;99.90;;;;;;4943706;29;20517;-69
2023/05/13 05:36:48;;;;;;;3.93;3.53;;;13.10;99.90;;;;;;4952732;28;20559;-68
2023/05/13 05:39:14;;;;;;;3.00;2.80;;;13.10;99.90;;;;;;4951072;28;20938;-70
2023/05/13 05:41:41;;;;;;;3.20;3.00;;;13.10;99.90;;;;;;4949934;28;20497;-69
2023/05/13 05:44:12;;;;;;;4.00;3.73;;;13.00;99.90;;;;;;4950371;29;20527;-68
2023/05/13 05:46:38;;;;;;;3.73;2.83;;;13.10;99.90;;;;;;4944157;28;20555;-69
2023/05/13 05:49:07;;;;;;;5.27;3.40;;;13.10;99.90;;;;;;4952107;28;20490;-69
2023/05/13 05:51:33;;;;;;;4.20;3.80;;;13.10;99.90;;;;;;4952023;28;20519;-68
2023/05/13 05:54:00;;;;;;;4.50;4.23;;;13.10;99.90;;;;;;4943549;28;20808;-69
2023/05/13 05:56:27;;;;;;;2.87;2.60;;;13.20;99.90;;;;;;4952888;29;20491;-69
2023/05/13 05:58:53;;;;;;;2.50;2.47;;;13.50;99.90;;;;;;4950901;28;20484;-69
2023/05/13 06:01:21;;;;;;;4.00;2.60;;;13.80;99.90;;;;;;4949794;28;20516;-68
2023/05/13 06:03:48;;;;;;;2.63;2.53;;;13.90;99.90;;;;;;4950049;28;20552;-68
2023/05/13 06:06:15;;;;;;;3.73;2.97;;;14.10;99.90;;;;;;4952736;29;20527;-70
2023/05/13 06:08:41;;;;;;;3.67;3.57;;;14.70;99.90;;;;;;4951841;28;20473;-69
2023/05/13 06:11:08;;;;;;;3.07;2.83;;;15.50;99.90;;;;;;4945097;28;20496;-69
2023/05/13 06:13:35;;;;;;;3.07;2.97;;;16.60;99.90;;;;;;4950947;28;20465;-69
2023/05/13 06:16:01;;;;;;;3.53;3.33;;;17.30;99.90;;;;;;4954356;29;20469;-70
2023/05/13 06:18:29;;;;;;;11.23;3.13;;;17.80;99.90;;;;;;4953208;28;21488;-68
2023/05/13 06:20:56;;;;;;;2.70;2.57;;;18.10;99.90;;;;;;4958633;28;21082;-68
2023/05/13 06:23:23;;;;;;;2.17;2.17;;;18.50;99.90;;;;;;4958332;28;20495;-70
2023/05/13 06:25:50;;;;;;;2.57;2.50;;;19.10;99.90;;;;;;4955886;28;20469;-67
2023/05/13 06:28:16;;;;;;;2.20;2.17;;;19.60;99.90;;;;;;4959349;28;20465;-69
2023/05/13 06:30:44;;;;;;;2.17;2.03;;;20.10;99.90;;;;;;4950299;28;22379;-70
2023/05/13 06:33:11;;;;;;;2.30;2.30;;;20.40;99.90;;;;;;4955412;29;20913;-69
2023/05/13 06:35:39;;;;;;;2.43;2.30;;;20.50;99.90;;;;;;4956111;28;20474;-70
2023/05/13 06:38:06;;;;;;;2.07;1.97;;;20.60;99.90;;;;;;4950950;28;20499;-69
2023/05/13 06:40:32;;;;;;;2.03;2.03;;;20.80;99.90;;;;;;4940559;28;20496;-68
2023/05/13 06:42:59;;;;;;;2.43;2.43;;;20.90;99.90;;;;;;4951201;28;20554;-68
2023/05/13 06:45:26;;;;;;;2.43;2.43;;;20.80;99.90;;;;;;4951907;28;20817;-70
2023/05/13 06:47:53;;;;;;;2.40;2.33;;;21.10;99.90;;;;;;4947218;28;20467;-68
2023/05/13 06:50:20;;;;;;;2.80;2.70;;;21.40;99.90;;;;;;4951359;28;20800;-69
2023/05/13 06:52:48;;;;;;;2.33;2.23;;;21.50;99.90;;;;;;4954537;28;20586;-69
2023/05/13 06:55:15;;;;;;;2.20;2.20;;;22.20;99.40;;;;;;4950703;28;20471;-70
2023/05/13 06:57:44;;;;;;;2.13;2.07;;;21.60;98.80;;;;;;4949821;28;20491;-68
2023/05/13 07:00:11;;;;;;;2.20;2.13;;;21.40;99.50;;;;;;4950577;28;20474;-69
2023/05/13 07:02:38;;;;;;;2.87;2.80;;;21.10;99.30;;;;;;4943164;28;20472;-69
2023/05/13 07:05:05;;;;;;;2.80;2.70;;;21.10;99.30;;;;;;4950343;28;20503;-69
2023/05/13 07:07:32;;;;;;;2.00;2.00;;;21.40;99.40;;;;;;4953900;28;20465;-69
2023/05/13 07:10:00;;;;;;;2.13;2.13;;;22.00;98.30;;;;;;4957722;28;20476;-70
2023/05/13 07:12:27;;;;;;;2.50;2.40;;;21.90;97.50;;;;;;4954713;28;20492;-69
2023/05/13 07:14:53;;;;;;;1.87;1.87;;;22.30;97.80;;;;;;4952618;28;20479;-69
2023/05/13 07:17:20;;;;;;;2.80;2.70;;;22.70;97.20;;;;;;4954850;29;20498;-69
2023/05/13 07:19:47;;;;;;;2.73;2.63;;;22.60;96.30;;;;;;4954722;28;20482;-69
2023/05/13 07:22:13;;;;;;;2.50;2.40;;;22.80;96.40;;;;;;4957154;28;20491;-70
2023/05/13 07:24:40;;;;;;;2.20;2.20;;;22.90;96.20;;;;;;4954679;28;20476;-68
2023/05/13 07:27:09;;;;;;;2.17;2.17;;;23.00;96.00;;;;;;4955110;28;20905;-69
2023/05/13 07:29:35;;;;;;;2.13;2.13;;;23.10;95.50;;;;;;4947197;29;20564;-68
2023/05/13 07:32:04;;;;;;;2.70;2.60;;;22.60;95.50;;;;;;4952778;28;20495;-68
2023/05/13 07:34:31;;;;;;;2.30;2.30;;;22.90;96.40;;;;;;4954765;29;20464;-68
2023/05/13 07:36:57;;;;;;;2.20;2.20;;;23.30;96.00;;;;;;4955517;28;21068;-68
2023/05/13 07:39:25;;;;;;;2.00;2.00;;;23.30;95.30;;;;;;4955253;28;20472;-69
2023/05/13 07:41:52;;;;;;;2.20;2.10;;;23.60;95.30;;;;;;4954845;28;20487;-69
2023/05/13 07:44:20;;;;;;;2.33;2.33;;;23.60;94.90;;;;;;4950356;29;20473;-69
2023/05/13 07:46:47;;;;;;;2.50;2.40;;;23.50;94.80;;;;;;4946704;29;20571;-69
2023/05/13 07:49:14;;;;;;;2.93;2.83;;;23.30;94.60;;;;;;4948890;28;20467;-70
2023/05/13 07:51:41;;;;;;;3.07;2.90;;;23.40;94.40;;;;;;4949118;29;20545;-70
2023/05/13 07:54:08;;;;;;;2.23;2.23;;;23.00;94.30;;;;;;4948987;28;20524;-70
2023/05/13 07:56:36;;;;;;;2.70;2.67;;;22.40;94.90;;;;;;4947308;29;20888;-69
2023/05/13 07:59:03;;;;;;;2.37;2.37;;;22.10;96.00;;;;;;4950679;29;20518;-69
2023/05/13 08:01:31;;;;;;;4.20;2.70;;;21.70;95.80;;;;;;4953513;28;20572;-69
2023/05/13 08:03:58;;;;;;;3.07;2.97;;;21.50;95.70;;;;;;4947486;28;20913;-74
2023/05/13 08:06:24;;;;;;;3.00;2.90;;;21.00;96.00;;;;;;4953763;28;20911;-68
2023/05/13 08:08:51;;;;;;;2.37;2.37;;;20.50;96.90;;;;;;4954293;29;20591;-69
2023/05/13 08:11:18;;;;;;;2.40;2.40;;;20.10;97.60;;;;;;4954908;28;20568;-70
2023/05/13 08:13:44;;;;;;;2.60;2.60;;;19.90;98.20;;;;;;4948314;28;20481;-70
2023/05/13 08:16:11;;;;;;;3.03;2.93;;;19.80;98.50;;;;;;4950909;28;22162;-69
2023/05/13 08:18:39;;;;;;;2.53;2.43;;;19.60;99.20;;;;;;4952756;28;20989;-70
2023/05/13 08:21:06;;;;;;;3.23;3.23;;;19.50;99.50;;;;;;4953699;28;20490;-69
2023/05/13 08:23:32;;;;;;;2.13;2.03;;;19.50;99.80;;;;;;4952521;28;20531;-70
2023/05/13 08:25:59;;;;;;;3.53;3.33;;;19.40;99.90;;;;;;4952305;28;20985;-71
2023/05/13 08:28:26;;;;;;;3.43;3.33;;;19.40;99.90;;;;;;4954127;28;20976;-72
2023/05/13 08:30:53;;;;;;;3.03;2.80;;;19.30;99.90;;;;;;4954532;28;20515;-72
2023/05/13 08:33:19;;;;;;;3.30;3.00;;;19.30;99.90;;;;;;4953791;28;21027;-72
2023/05/13 08:35:47;;;;;;;3.87;2.80;;;19.40;99.90;;;;;;4953853;28;20492;-73
2023/05/13 08:38:14;;;;;;;2.90;2.77;;;19.40;99.90;;;;;;4954045;28;21068;-71
2023/05/13 08:40:42;;;;;;;2.87;2.87;;;19.50;99.90;;;;;;4948345;28;20543;-72
2023/05/13 08:43:10;;;;;;;5.40;3.30;;;19.50;99.90;;;;;;4953745;28;20488;-72
2023/05/13 08:45:39;;;;;;;2.73;2.53;;;19.40;99.90;;;;;;4954331;28;20465;-72
2023/05/13 08:48:06;;;;;;;2.10;2.10;;;19.50;99.90;;;;;;4954037;28;20515;-72
2023/05/13 08:50:36;;;;;;;2.80;2.60;;;19.40;99.90;;;;;;4954117;28;20511;-72
2023/05/13 08:53:06;;;;;;;2.33;2.33;;;19.50;99.90;;;;;;4954032;28;20465;-72
2023/05/13 08:55:33;;;;;;;2.47;2.37;;;19.50;98.90;;;;;;4953953;28;20490;-72
2023/05/13 08:57:59;;;;;;;3.40;3.30;;;19.50;98.60;;;;;;4953701;28;20491;-72
2023/05/13 09:00:26;;;;;;;2.27;2.20;;;19.50;99.50;;;;;;4953906;28;20472;-71
2023/05/13 09:02:53;;;;;;;2.40;2.33;;;19.70;99.90;;;;;;4954306;28;20551;-71
2023/05/13 09:05:21;;;;;;;2.30;2.30;;;19.80;99.90;;;;;;4953540;28;20473;-71
2023/05/13 09:07:48;;;;;;;3.10;3.00;;;19.80;99.90;;;;;;4954285;28;20509;-70
2023/05/13 09:10:18;;;;;;;2.27;2.27;;;19.90;99.80;;;;;;4953812;28;20820;-70
2023/05/13 09:12:49;;;;;;;2.70;2.53;;;19.80;98.60;;;;;;4953365;28;20468;-71
2023/05/13 09:15:17;;;;;;;2.80;2.60;;;20.00;99.00;;;;;;4953269;28;20493;-72
2023/05/13 09:17:47;;;;;;;3.00;2.90;;;20.20;98.60;;;;;;4954480;28;20597;-72
2023/05/13 09:20:16;;;;;;;2.40;2.40;;;20.40;98.20;;;;;;4954500;28;20560;-74
2023/05/13 09:22:47;;;;;;;3.80;2.60;;;20.50;97.00;;;;;;4955962;28;20487;-71
2023/05/13 09:25:16;;;;;;;2.03;2.00;;;20.60;97.60;;;;;;4953390;28;20487;-72
2023/05/13 09:27:45;;;;;;;3.20;2.90;;;20.60;97.00;;;;;;4953448;28;20471;-71
2023/05/13 09:30:12;;;;;;;2.27;2.17;;;20.70;97.50;;;;;;4953605;28;20903;-71
2023/05/13 09:32:40;;;;;;;2.40;2.30;;;20.80;96.40;;;;;;4953727;28;20471;-71
2023/05/13 09:35:15;;;;;;;2.40;2.40;;;20.90;97.10;;;;;;4952938;28;20556;-71
2023/05/13 09:37:42;;;;;;;3.50;2.40;;;21.00;95.90;;;;;;4953157;29;20524;-74
2023/05/13 09:40:12;;;;;;;2.00;2.00;;;21.10;95.30;;;;;;4947205;28;20472;-71
2023/05/13 09:42:42;;;;;;;2.10;2.10;;;21.10;94.80;;;;;;4952918;28;20469;-71
2023/05/13 09:45:10;;;;;;;2.07;1.97;;;21.10;95.10;;;;;;4953451;28;20489;-70
2023/05/13 09:47:38;;;;;;;2.03;1.83;;;21.10;95.50;;;;;;4953246;28;20550;-70
2023/05/13 09:50:06;;;;;;;3.10;2.90;;;21.20;94.90;;;;;;4953328;28;20471;-71
2023/05/13 09:52:34;;;;;;;1.73;1.63;;;21.20;93.70;;;;;;4953561;28;20576;-71
2023/05/13 09:55:03;;;;;;;1.83;1.83;;;21.30;93.90;;;;;;4952864;28;20475;-71
2023/05/13 09:57:30;;;;;;;1.97;1.97;;;21.30;92.90;;;;;;4952981;28;20559;-70
2023/05/13 09:59:59;;;;;;;2.20;2.20;;;21.30;92.10;;;;;;4952589;28;20921;-70
2023/05/13 10:02:27;;;;;;;2.47;2.37;;;21.30;92.00;;;;;;4952818;28;20579;-70
2023/05/13 10:04:55;;;;;;;2.40;2.30;;;21.40;91.50;;;;;;4952031;28;20465;-70
2023/05/13 10:07:24;;;;;;;2.40;2.30;;;21.50;91.40;;;;;;4952752;28;20470;-70
2023/05/13 10:09:54;;;;;;;1.60;1.60;;;21.60;91.30;;;;;;4953003;28;20562;-71
2023/05/13 10:12:22;;;;;;;1.50;1.50;;;21.60;91.60;;;;;;4952536;28;20616;-70
2023/05/13 10:14:51;;;;;;;1.87;1.87;;;21.70;90.50;;;;;;4952019;28;20560;-68
2023/05/13 10:17:22;;;;;;;2.73;2.53;;;21.80;90.70;;;;;;4952673;28;20592;-70
2023/05/13 10:19:50;;;;;;;1.93;1.93;;;21.80;90.80;;;;;;4952539;28;20489;-69
2023/05/13 10:22:26;;;;;;;2.63;2.53;;;21.80;91.10;;;;;;4952396;28;20927;-70
2023/05/13 10:24:53;;;;;;;2.13;2.03;;;21.70;91.20;;;;;;4952017;28;20858;-70
2023/05/13 10:27:22;;;;;;;1.93;1.90;;;21.60;90.10;;;;;;4952652;28;20972;-69
2023/05/13 10:29:54;;;;;;;2.20;2.20;;;21.70;90.80;;;;;;4951910;29;20499;-70
2023/05/13 10:32:23;;;;;;;1.63;1.53;;;21.80;90.20;;;;;;4953427;28;20567;-70
2023/05/13 10:34:52;;;;;;;13.80;2.07;;;21.90;89.30;;;;;;4952297;28;20838;-71
2023/05/13 10:37:50;;;;;;;3.23;2.17;;;22.00;86.50;;;;;;4952790;28;20581;-71
2023/05/13 10:40:40;;;;;;;1.67;1.57;;;21.90;85.60;;;;;;4945338;28;20472;-70
2023/05/13 10:43:15;;;;;;;1.30;1.30;;;22.00;85.90;;;;;;4939106;28;20473;-72
2023/05/13 10:45:45;;;;;;;1.77;1.77;;;22.10;85.10;;;;;;4952724;28;20567;-70
2023/05/13 10:48:13;;;;;;;1.87;1.77;;;22.00;83.60;;;;;;4951946;28;20597;-69
2023/05/13 10:50:51;;;;;;;1.67;1.63;;;22.10;84.00;;;;;;4952133;28;20967;-70
2023/05/13 10:53:20;;;;;;;4.47;2.33;;;22.20;81.90;;;;;;4951334;28;20866;-70
2023/05/13 10:55:51;;;;;;;1.33;1.33;;;22.40;80.10;;;;;;4952712;28;20544;-69
2023/05/13 10:58:21;;;;;;;1.60;1.60;;;22.60;79.80;;;;;;4951943;28;20518;-71
2023/05/13 11:00:48;;;;;;;2.10;2.00;;;22.70;77.30;;;;;;4952717;28;20864;-71
2023/05/13 11:03:29;;;;;;;1.47;1.47;;;22.80;74.60;;;;;;4951725;28;20469;-69
2023/05/13 11:06:04;;;;;;;1.53;1.53;;;22.90;74.40;;;;;;4952272;28;20553;-72
2023/05/13 11:08:37;;;;;;;1.03;1.03;;;22.80;74.50;;;;;;4951941;28;20483;-71
2023/05/13 11:11:18;;;;;;;2.37;1.90;;;22.70;72.40;;;;;;4952087;28;20577;-72
2023/05/13 11:13:45;;;;;;;1.40;1.40;;;22.60;71.90;;;;;;4950383;28;20560;-72
2023/05/13 11:16:13;;;;;;;1.27;1.27;;;22.60;73.00;;;;;;4952717;28;20495;-72
2023/05/13 11:18:41;;;;;;;1.30;1.30;;;22.60;73.00;;;;;;4952377;28;20502;-71
2023/05/13 11:21:08;;;;;;;1.57;1.57;;;22.70;71.30;;;;;;4952249;28;20490;-71
2023/05/13 11:23:55;;;;;;;1.40;1.40;;;22.70;73.10;;;;;;4951538;28;20477;-73
2023/05/13 11:26:22;;;;;;;1.57;1.30;;;22.90;71.00;;;;;;4952191;28;20465;-72
2023/05/13 11:28:58;;;;;;;1.40;1.40;;;23.00;70.60;;;;;;4951595;28;20466;-71
2023/05/13 11:31:27;;;;;;;1.47;1.47;;;23.10;69.90;;;;;;4951958;28;20482;-72
2023/05/13 11:34:09;;;;;;;1.20;1.20;;;23.20;71.00;;;;;;4951293;28;20686;-72
2023/05/13 11:36:36;;;;;;;1.73;1.73;;;23.20;69.30;;;;;;4951833;28;20558;-72
2023/05/13 11:39:09;;;;;;;2.63;1.47;;;23.20;68.70;;;;;;4951869;28;20557;-71
2023/05/13 11:41:37;;;;;;;1.53;1.53;;;23.30;68.60;;;;;;4945718;28;20530;-72
2023/05/13 11:44:05;;;;;;;1.67;1.67;;;23.20;68.50;;;;;;4952026;28;20471;-72
2023/05/13 11:46:32;;;;;;;1.80;1.70;;;23.10;67.50;;;;;;4952028;28;20474;-72
2023/05/13 11:48:58;;;;;;;1.47;1.47;;;22.90;67.30;;;;;;4951387;28;20468;-71
2023/05/13 11:51:27;;;;;;;1.33;1.33;;;22.70;66.30;;;;;;4952158;28;20982;-72
2023/05/13 11:54:00;;;;;;;1.80;1.80;;;22.70;66.00;;;;;;4954773;28;20905;-73
2023/05/13 11:56:27;;;;;;;1.47;1.47;;;22.60;65.20;;;;;;4955415;28;21000;-72
2023/05/13 11:58:54;;;;;;;1.70;1.63;;;22.50;64.70;;;;;;4954206;28;20901;-72
2023/05/13 12:01:21;;;;;;;2.33;2.23;;;22.50;66.00;;;;;;4955068;28;20508;-73
2023/05/13 12:03:48;;;;;;;1.67;1.67;;;22.40;64.80;;;;;;4955373;28;20473;-73
2023/05/13 12:06:15;;;;;;;1.33;1.33;;;22.40;65.00;;;;;;4955847;28;20472;-71
2023/05/13 12:08:46;;;;;;;1.93;1.73;;;22.50;64.90;;;;;;4955062;28;20527;-72
2023/05/13 12:11:13;;;;;;;2.97;1.53;;;22.70;66.00;;;;;;4955142;28;20854;-70
2023/05/13 12:13:44;;;;;;;1.77;1.67;;;22.80;62.60;;;;;;4953825;28;20954;-72
2023/05/13 12:16:15;;;;;;;2.07;2.00;;;22.70;62.90;;;;;;4957152;28;20495;-71
2023/05/13 12:18:42;;;;;;;1.83;1.83;;;22.70;65.20;;;;;;4958146;28;20485;-72
2023/05/13 12:21:16;;;;;;;2.07;2.07;;;22.50;62.80;;;;;;4957592;28;20877;-73
2023/05/13 12:23:42;;;;;;;1.30;1.30;;;22.40;63.20;;;;;;4955195;28;20468;-72
2023/05/13 12:26:11;;;;;;;1.90;1.80;;;22.40;64.20;;;;;;4954937;28;20473;-72
2023/05/13 12:28:38;;;;;;;1.50;1.50;;;22.50;62.90;;;;;;4953801;28;20471;-72
2023/05/13 12:31:05;;;;;;;0.97;0.97;;;22.70;62.80;;;;;;4954849;28;20830;-73
2023/05/13 12:33:33;;;;;;;1.97;1.87;;;22.80;61.90;;;;;;4954321;28;20655;-72
2023/05/13 12:36:18;;;;;;;1.37;1.27;;;22.80;61.10;;;;;;4955380;28;20470;-73
2023/05/13 12:39:07;;;;;;;1.93;1.83;;;22.70;61.90;;;;;;4954529;28;20488;-73
2023/05/13 12:41:37;;;;;;;1.57;1.57;;;22.80;60.80;;;;;;4950046;28;20497;-73
2023/05/13 12:44:07;;;;;;;1.47;1.47;;;22.70;61.00;;;;;;4953105;28;20616;-72
2023/05/13 12:46:34;;;;;;;1.97;1.87;;;22.60;61.60;;;;;;4954732;28;20591;-72
2023/05/13 12:49:02;;;;;;;1.90;1.90;;;22.50;60.90;;;;;;4954257;28;20550;-74
2023/05/13 12:51:30;;;;;;;1.93;1.63;;;22.20;59.50;;;;;;4954390;28;20481;-72
2023/05/13 12:53:57;;;;;;;1.23;1.23;;;22.10;60.00;;;;;;4953873;28;20595;-74
2023/05/13 12:56:24;;;;;;;1.57;1.50;;;22.00;59.60;;;;;;4954567;28;20636;-74
2023/05/13 12:58:53;;;;;;;2.30;2.30;;;22.00;59.80;;;;;;4953657;28;20498;-74
2023/05/13 13:01:20;;;;;;;2.30;2.30;;;21.90;60.70;;;;;;4954194;28;20552;-73
2023/05/13 13:03:47;;;;;;;2.50;1.20;;;21.90;58.90;;;;;;4952006;28;20502;-74
2023/05/13 13:06:14;;;;;;;1.50;1.50;;;21.80;59.50;;;;;;4954373;28;20461;-74
2023/05/13 13:08:41;;;;;;;1.47;1.47;;;22.00;59.70;;;;;;4954984;28;20469;-73
2023/05/13 13:11:08;;;;;;;2.57;1.60;;;22.10;59.90;;;;;;4953849;28;20962;-73
2023/05/13 13:13:35;;;;;;;1.70;1.70;;;22.20;58.80;;;;;;4952505;28;20519;-73
2023/05/13 13:16:04;;;;;;;1.50;1.50;;;22.20;57.50;;;;;;4953870;28;20819;-74
2023/05/13 13:18:30;;;;;;;1.30;1.30;;;22.40;58.50;;;;;;4953434;28;20568;-72
2023/05/13 13:20:57;;;;;;;1.00;1.00;;;22.40;57.70;;;;;;4953837;28;20852;-73
2023/05/13 13:23:24;;;;;;;1.67;1.67;;;22.30;57.20;;;;;;4953303;28;20470;-74
2023/05/13 13:25:51;;;;;;;1.50;1.50;;;22.20;57.80;;;;;;4953498;28;20465;-73
2023/05/13 13:28:17;;;;;;;1.40;1.40;;;22.10;58.50;;;;;;4952778;28;20492;-73
2023/05/13 13:30:46;;;;;;;1.57;1.57;;;22.20;58.10;;;;;;4953533;28;20486;-73
2023/05/13 13:33:15;;;;;;;2.50;1.80;;;22.10;58.40;;;;;;4953317;28;20560;-72
2023/05/13 13:35:43;;;;;;;1.50;1.50;;;22.20;58.00;;;;;;4953857;28;20837;-72
2023/05/13 13:38:10;;;;;;;1.33;1.33;;;22.30;55.60;;;;;;4953202;28;20469;-73
2023/05/13 13:40:37;;;;;;;1.60;1.60;;;22.30;55.90;;;;;;4952912;28;20519;-72
2023/05/13 13:43:04;;;;;;;1.37;1.37;;;22.20;55.10;;;;;;4952187;28;20503;-70
2023/05/13 13:45:31;;;;;;;1.53;1.30;;;22.40;55.50;;;;;;4952890;28;20548;-72
2023/05/13 13:47:58;;;;;;;1.30;1.30;;;22.60;56.00;;;;;;4952837;28;20473;-71
2023/05/13 13:50:26;;;;;;;2.37;1.50;;;22.70;55.90;;;;;;4953543;28;20545;-72
2023/05/13 13:52:53;;;;;;;1.90;1.40;;;22.90;55.80;;;;;;4953586;28;20834;-73
2023/05/13 13:55:20;;;;;;;1.83;1.77;;;23.00;56.30;;;;;;4952830;28;20474;-72
2023/05/13 13:57:46;;;;;;;1.40;1.40;;;23.10;55.80;;;;;;4953169;28;20479;-73
2023/05/13 14:00:14;;;;;;;1.40;1.40;;;23.00;56.20;;;;;;4952479;28;20850;-72
2023/05/13 14:02:41;;;;;;;1.23;1.23;;;22.90;56.20;;;;;;4953090;28;20516;-72
2023/05/13 14:05:08;;;;;;;1.10;1.10;;;22.90;56.40;;;;;;4952714;28;20824;-72
2023/05/13 14:07:37;;;;;;;2.20;2.10;;;22.80;56.60;;;;;;4952545;28;20469;-72
2023/05/13 14:10:04;;;;;;;1.80;1.80;;;22.70;57.50;;;;;;4953127;28;20504;-73
2023/05/13 14:12:31;;;;;;;1.60;1.60;;;22.80;57.10;;;;;;4952594;28;20525;-72
2023/05/13 14:14:58;;;;;;;1.53;1.43;;;22.90;56.40;;;;;;4951260;28;20465;-73
2023/05/13 14:17:25;;;;;;;1.50;1.50;;;23.00;55.40;;;;;;4952377;28;20982;-72
2023/05/13 14:19:54;;;;;;;1.90;1.90;;;23.10;53.70;;;;;;4952165;28;20488;-72
2023/05/13 14:22:22;;;;;;;0.90;0.90;;;23.20;54.70;;;;;;4952674;28;20489;-72
2023/05/13 14:24:51;;;;;;;2.30;1.90;;;23.30;54.60;;;;;;4951793;28;20594;-73
2023/05/13 14:27:18;;;;;;;1.70;1.70;;;23.50;55.70;;;;;;4952970;28;20811;-71
2023/05/13 14:29:46;;;;;;;1.60;1.60;;;23.60;54.60;;;;;;4951659;28;20462;-71
2023/05/13 14:32:12;;;;;;;1.30;1.30;;;23.70;55.40;;;;;;4952529;28;20573;-72
2023/05/13 14:34:39;;;;;;;1.17;1.17;;;23.80;53.00;;;;;;4952116;28;20884;-71
2023/05/13 14:37:06;;;;;;;2.60;2.50;;;23.80;55.50;;;;;;4952681;28;20476;-72
2023/05/13 14:39:33;;;;;;;1.63;1.63;;;23.60;54.10;;;;;;4951829;28;20499;-73
2023/05/13 14:42:01;;;;;;;1.60;1.60;;;23.40;54.10;;;;;;4951596;28;20505;-71
2023/05/13 14:44:27;;;;;;;1.40;1.40;;;23.20;54.30;;;;;;4950651;28;20510;-72
2023/05/13 14:46:54;;;;;;;1.20;1.20;;;23.00;54.20;;;;;;4952370;28;20466;-72
2023/05/13 14:49:21;;;;;;;1.10;1.10;;;22.90;54.50;;;;;;4951970;28;20469;-72
2023/05/13 14:51:48;;;;;;;1.83;1.73;;;22.70;54.80;;;;;;4951718;28;20481;-72
2023/05/13 14:54:16;;;;;;;1.30;1.30;;;22.70;55.30;;;;;;4951159;28;20469;-74
2023/05/13 14:56:43;;;;;;;1.50;1.50;;;22.70;55.10;;;;;;4952016;28;20838;-72
2023/05/13 14:59:11;;;;;;;2.23;2.20;;;22.60;55.40;;;;;;4950912;28;20962;-70
2023/05/13 15:01:38;;;;;;;1.93;1.93;;;22.60;54.50;;;;;;4951850;28;20501;-72
2023/05/13 15:04:04;;;;;;;1.80;1.80;;;22.70;54.70;;;;;;4951261;28;20949;-73
2023/05/13 15:06:31;;;;;;;1.77;1.67;;;22.80;54.00;;;;;;4952042;28;20469;-71
2023/05/13 15:08:58;;;;;;;1.40;1.40;;;22.90;53.60;;;;;;4951595;28;20539;-72
2023/05/13 15:11:26;;;;;;;2.03;2.03;;;22.90;53.10;;;;;;4952243;28;20493;-72
2023/05/13 15:13:53;;;;;;;1.33;1.33;;;23.00;54.40;;;;;;4950919;28;20959;-71
2023/05/13 15:16:21;;;;;;;1.80;1.80;;;23.20;54.50;;;;;;4952158;28;20461;-72
2023/05/13 15:18:48;;;;;;;1.23;1.23;;;23.40;52.50;;;;;;4951687;28;20470;-72
2023/05/13 15:21:15;;;;;;;2.03;1.93;;;23.30;52.70;;;;;;4951908;28;20844;-72
2023/05/13 15:23:42;;;;;;;1.53;1.53;;;23.20;52.00;;;;;;4951411;28;20469;-71
2023/05/13 15:26:09;;;;;;;1.40;1.27;;;23.20;52.10;;;;;;4952874;28;20475;-71
2023/05/13 15:28:35;;;;;;;1.57;1.47;;;23.30;53.10;;;;;;4955554;28;20836;-71
2023/05/13 15:31:02;;;;;;;1.53;1.53;;;23.40;52.20;;;;;;4956107;28;20854;-71
2023/05/13 15:33:31;;;;;;;1.50;1.50;;;23.50;52.50;;;;;;4955278;28;20465;-71
2023/05/13 15:35:58;;;;;;;1.33;1.33;;;23.50;53.30;;;;;;4955405;28;20468;-72
2023/05/13 15:38:24;;;;;;;1.50;1.50;;;23.60;53.70;;;;;;4955538;28;20469;-70
2023/05/13 15:40:51;;;;;;;1.90;1.87;;;23.70;52.50;;;;;;4955898;28;20497;-71
2023/05/13 15:43:18;;;;;;;1.93;1.83;;;23.70;52.90;;;;;;4954655;28;20465;-71
2023/05/13 15:45:44;;;;;;;1.50;1.50;;;23.70;53.00;;;;;;4955918;28;20963;-72
2023/05/13 15:48:11;;;;;;;2.23;1.77;;;23.60;52.10;;;;;;4960320;28;20480;-72
2023/05/13 15:50:39;;;;;;;1.80;1.80;;;23.60;52.90;;;;;;4964110;28;21016;-72
2023/05/13 15:53:06;;;;;;;1.70;1.70;;;23.70;52.70;;;;;;4960316;28;20502;-72
2023/05/13 15:55:33;;;;;;;1.43;1.43;;;23.80;54.10;;;;;;4960769;28;20562;-73
2023/05/13 15:57:59;;;;;;;1.40;1.40;;;23.80;53.10;;;;;;4959167;28;20887;-72
2023/05/13 16:00:26;;;;;;;3.00;1.80;;;23.80;53.20;;;;;;4961537;28;20820;-72
2023/05/13 16:02:53;;;;;;;1.30;1.30;;;23.70;52.40;;;;;;4960425;28;20469;-72
2023/05/13 16:05:20;;;;;;;1.60;1.60;;;23.60;52.50;;;;;;4954563;28;20466;-72
2023/05/13 16:07:48;;;;;;;1.60;1.60;;;23.50;52.30;;;;;;4955399;28;20536;-73
2023/05/13 16:10:15;;;;;;;1.30;1.30;;;23.50;53.60;;;;;;4955238;28;21023;-72
2023/05/13 16:12:41;;;;;;;3.10;1.87;;;23.30;52.60;;;;;;4954272;28;20558;-73
2023/05/13 16:15:09;;;;;;;2.10;2.00;;;23.00;53.40;;;;;;5012740;23;20506;-72
2023/05/13 16:17:36;;;;;;;4.00;1.67;;;22.90;54.00;;;;;;4994656;28;20486;-74
2023/05/13 16:20:03;;;;;;;1.60;1.60;;;22.90;53.90;;;;;;4994459;28;20499;-73
2023/05/13 16:22:32;;;;;;;1.10;1.10;;;22.90;54.00;;;;;;4994496;28;20472;-73
2023/05/13 16:25:03;;;;;;;1.87;1.73;;;22.90;53.90;;;;;;4994070;28;21024;-71
2023/05/13 16:27:31;;;;;;;1.60;1.50;;;22.90;53.30;;;;;;4994840;28;20502;-74
2023/05/13 16:29:58;;;;;;;1.70;1.60;;;22.90;54.60;;;;;;4993969;28;20487;-71
2023/05/13 16:32:26;;;;;;;1.20;1.20;;;22.90;53.10;;;;;;4993968;28;20466;-73
2023/05/13 16:34:53;;;;;;;1.80;1.40;;;22.80;53.60;;;;;;4993335;28;20487;-72
2023/05/13 16:37:20;;;;;;;1.50;1.50;;;22.60;53.10;;;;;;4993876;28;20481;-72
2023/05/13 16:39:46;;;;;;;1.43;1.43;;;22.40;53.10;;;;;;4989822;28;20463;-72
2023/05/13 16:42:14;;;;;;;1.03;1.03;;;22.40;53.30;;;;;;4982247;28;20464;-72
2023/05/13 16:44:41;;;;;;;1.57;1.57;;;22.30;53.20;;;;;;4972613;28;20988;-72
2023/05/13 16:47:08;;;;;;;2.20;1.60;;;22.20;53.30;;;;;;4974263;28;20464;-72
2023/05/13 16:49:35;;;;;;;1.67;1.67;;;22.10;53.90;;;;;;4974237;28;20464;-72
2023/05/13 16:52:02;;;;;;;1.50;1.50;;;22.00;53.90;;;;;;4974350;28;20558;-72